createdAt,value
2022-12-06T00:01:57.030Z,101750.97
2022-12-06T00:06:54.864Z,101724.31
2022-12-06T00:11:59.843Z,101724.19
2022-12-06T00:16:58.972Z,101720.84
2022-12-06T00:21:56.851Z,101714.72
2022-12-06T00:27:03.304Z,101716.38
2022-12-06T00:32:19.102Z,101706.63
2022-12-06T00:37:33.948Z,101749.06
2022-12-06T00:42:36.166Z,101726.44
2022-12-06T00:47:41.750Z,101735.06
2022-12-06T00:58:14.844Z,101700.25
2022-12-06T01:03:34.952Z,101698.44
2022-12-06T01:08:56.812Z,101691.44
2022-12-06T01:19:39.359Z,101699.88
2022-12-06T01:24:36.207Z,101692.06
2022-12-06T01:29:39.579Z,101713.50
2022-12-06T01:34:44.475Z,101718.56
2022-12-06T01:39:47.295Z,101680.56
2022-12-06T01:45:01.749Z,101712.28
2022-12-06T01:50:11.367Z,101707.81
2022-12-06T01:55:13.293Z,101677.75
2022-12-06T02:00:16.947Z,101680.34
2022-12-06T02:05:28.901Z,101707.91
2022-12-06T02:29:54.268Z,101654.59
2022-12-06T02:35:40.003Z,101640.50
2022-12-06T02:40:41.951Z,101659.44
2022-12-06T02:58:37.091Z,101635.03
2022-12-06T03:10:11.353Z,101664.00
2022-12-06T03:16:08.525Z,101640.81
2022-12-06T03:27:04.084Z,101640.59
2022-12-06T03:32:14.001Z,101646.56
2022-12-06T03:37:21.552Z,101639.75
2022-12-06T03:42:19.286Z,101635.19
2022-12-06T03:48:09.665Z,101666.16
2022-12-06T03:53:25.719Z,101619.34
2022-12-06T04:04:11.525Z,101639.13
2022-12-06T04:09:28.078Z,101616.72
2022-12-06T04:14:34.748Z,101613.22
2022-12-06T04:19:32.135Z,101612.31
2022-12-06T04:24:30.336Z,101608.78
2022-12-06T04:36:03.893Z,101603.19
2022-12-06T04:41:00.479Z,101635.19
2022-12-06T04:45:57.110Z,101634.34
2022-12-06T04:50:54.587Z,101626.66
2022-12-06T04:55:51.903Z,101606.63
2022-12-06T05:38:22.512Z,101629.28
2022-12-06T05:49:04.550Z,101618.06
2022-12-06T06:01:02.223Z,101617.16
2022-12-06T07:00:24.304Z,101643.16
2022-12-06T08:04:10.377Z,101630.09
2022-12-06T08:09:07.289Z,101642.22
2022-12-06T08:14:04.969Z,101651.81
2022-12-06T08:19:01.480Z,101645.72
2022-12-06T08:23:58.092Z,101654.47
2022-12-06T08:28:54.567Z,101664.00
2022-12-06T08:33:51.093Z,101665.91
2022-12-06T08:38:47.866Z,101655.38
2022-12-06T08:43:45.376Z,101664.00
2022-12-06T08:48:43.593Z,101664.00
2022-12-06T11:29:43.118Z,101619.00
2022-12-06T11:34:44.768Z,101614.31
2022-12-06T15:27:36.578Z,101545.00
2022-12-06T16:15:53.342Z,101549.63
2022-12-06T16:20:53.949Z,101528.16
2022-12-06T16:25:53.979Z,101560.31
2022-12-06T16:35:57.434Z,101543.25
2022-12-06T17:36:58.962Z,101538.47
2022-12-06T17:42:15.828Z,101545.34
2022-12-06T17:47:12.330Z,101538.38
2022-12-06T17:52:13.503Z,101538.34
2022-12-06T17:57:16.094Z,101540.81
2022-12-06T18:02:15.856Z,101539.00
2022-12-06T18:07:19.750Z,101527.72
2022-12-06T18:12:17.792Z,101529.41
2022-12-06T18:17:14.320Z,101515.59
2022-12-06T18:27:37.364Z,101500.91
2022-12-06T18:32:35.126Z,101491.47
2022-12-06T18:43:49.503Z,101499.34
2022-12-06T18:48:53.766Z,101487.19
2022-12-06T18:53:51.896Z,101488.00
2022-12-06T18:58:51.057Z,101482.69
2022-12-06T19:03:49.380Z,101483.19
2022-12-06T19:08:46.173Z,101480.50
2022-12-06T19:13:42.768Z,101487.56
2022-12-06T19:18:39.563Z,101475.47
2022-12-06T19:23:38.589Z,101456.38
2022-12-06T19:33:54.799Z,101465.81
2022-12-06T19:39:03.224Z,101460.56
2022-12-06T19:44:16.285Z,101466.63
2022-12-06T19:49:16.288Z,101436.28
2022-12-06T19:54:28.766Z,101434.38
2022-12-06T19:59:36.074Z,101421.06
2022-12-06T20:04:37.958Z,101434.63
2022-12-06T20:09:34.949Z,101403.97
2022-12-06T20:14:38.892Z,101423.47
2022-12-06T20:19:38.945Z,101399.13
2022-12-06T20:24:35.750Z,101404.72
2022-12-06T20:29:40.350Z,101363.34
2022-12-06T20:34:40.136Z,101368.25
2022-12-06T20:39:39.309Z,101360.28
2022-12-06T20:44:39.824Z,101362.81
2022-12-06T20:49:49.905Z,101343.84
2022-12-06T20:54:53.741Z,101344.81
2022-12-06T20:59:52.687Z,101358.34
2022-12-06T21:04:52.661Z,101340.03
2022-12-06T21:09:51.530Z,101315.66
2022-12-06T21:14:48.119Z,101310.44
2022-12-06T21:19:50.883Z,101324.69
2022-12-06T21:24:47.371Z,101321.03
2022-12-06T21:30:04.597Z,101306.97
2022-12-06T21:35:01.071Z,101295.78
2022-12-06T21:40:07.505Z,101311.41
2022-12-06T22:31:48.204Z,101261.50
2022-12-06T22:42:08.881Z,101203.75
2022-12-06T23:02:41.917Z,101191.97
2022-12-06T23:07:40.940Z,101194.34
2022-12-06T23:12:55.974Z,101169.97
2022-12-06T23:17:58.567Z,101175.97
2022-12-06T23:22:59.957Z,101166.63
2022-12-06T23:33:36.700Z,101169.13
2022-12-06T23:39:00.331Z,101167.28
2022-12-06T23:59:45.822Z,101145.88
